sensor_id;sensor_type;location;lat;lon;timestamp;P1;durP1;ratioP1;P2;durP2;ratioP2
68216;SDS011;55037;52.354;4.992;2023-03-05T00:01:41;7.50;;;2.30;;
68216;SDS011;55037;52.354;4.992;2023-03-05T00:04:09;8.45;;;2.70;;
68216;SDS011;55037;52.354;4.992;2023-03-05T00:06:39;5.80;;;2.00;;
68216;SDS011;55037;52.354;4.992;2023-03-05T00:09:07;9.95;;;2.08;;
68216;SDS011;55037;52.354;4.992;2023-03-05T00:11:34;4.47;;;1.53;;
68216;SDS011;55037;52.354;4.992;2023-03-05T00:14:02;4.78;;;1.90;;
68216;SDS011;55037;52.354;4.992;2023-03-05T00:16:30;5.13;;;1.45;;
68216;SDS011;55037;52.354;4.992;2023-03-05T00:18:58;3.65;;;1.40;;
68216;SDS011;55037;52.354;4.992;2023-03-05T00:21:30;5.65;;;1.60;;
68216;SDS011;55037;52.354;4.992;2023-03-05T00:24:00;5.97;;;1.73;;
68216;SDS011;55037;52.354;4.992;2023-03-05T00:26:28;9.38;;;1.73;;
68216;SDS011;55037;52.354;4.992;2023-03-05T00:28:57;4.35;;;1.92;;
68216;SDS011;55037;52.354;4.992;2023-03-05T00:31:26;6.32;;;1.95;;
68216;SDS011;55037;52.354;4.992;2023-03-05T00:34:00;7.65;;;1.98;;
68216;SDS011;55037;52.354;4.992;2023-03-05T00:36:30;6.10;;;1.50;;
68216;SDS011;55037;52.354;4.992;2023-03-05T00:38:57;9.70;;;1.98;;
68216;SDS011;55037;52.354;4.992;2023-03-05T00:41:24;6.05;;;2.00;;
68216;SDS011;55037;52.354;4.992;2023-03-05T00:43:52;6.82;;;2.22;;
68216;SDS011;55037;52.354;4.992;2023-03-05T00:46:20;9.95;;;1.95;;
68216;SDS011;55037;52.354;4.992;2023-03-05T00:48:47;7.90;;;1.87;;
68216;SDS011;55037;52.354;4.992;2023-03-05T00:51:14;6.47;;;1.90;;
68216;SDS011;55037;52.354;4.992;2023-03-05T00:53:42;6.85;;;2.30;;
68216;SDS011;55037;52.354;4.992;2023-03-05T00:56:09;7.40;;;2.40;;
68216;SDS011;55037;52.354;4.992;2023-03-05T00:58:36;6.13;;;2.47;;
68216;SDS011;55037;52.354;4.992;2023-03-05T01:01:04;10.50;;;3.00;;
68216;SDS011;55037;52.354;4.992;2023-03-05T01:03:32;3.75;;;1.63;;
68216;SDS011;55037;52.354;4.992;2023-03-05T01:06:00;7.18;;;2.67;;
68216;SDS011;55037;52.354;4.992;2023-03-05T01:08:30;8.85;;;2.50;;
68216;SDS011;55037;52.354;4.992;2023-03-05T01:10:59;6.68;;;2.85;;
68216;SDS011;55037;52.354;4.992;2023-03-05T01:13:29;9.57;;;2.13;;
68216;SDS011;55037;52.354;4.992;2023-03-05T01:15:56;5.90;;;2.10;;
68216;SDS011;55037;52.354;4.992;2023-03-05T01:18:24;6.20;;;1.40;;
68216;SDS011;55037;52.354;4.992;2023-03-05T01:20:51;5.65;;;1.90;;
68216;SDS011;55037;52.354;4.992;2023-03-05T01:23:19;12.27;;;3.13;;
68216;SDS011;55037;52.354;4.992;2023-03-05T01:25:53;7.97;;;2.87;;
68216;SDS011;55037;52.354;4.992;2023-03-05T01:28:23;8.13;;;2.67;;
68216;SDS011;55037;52.354;4.992;2023-03-05T01:30:51;8.10;;;2.13;;
68216;SDS011;55037;52.354;4.992;2023-03-05T01:33:18;8.32;;;1.55;;
68216;SDS011;55037;52.354;4.992;2023-03-05T01:35:46;4.63;;;1.38;;
68216;SDS011;55037;52.354;4.992;2023-03-05T01:38:15;4.53;;;1.30;;
68216;SDS011;55037;52.354;4.992;2023-03-05T01:40:42;6.50;;;1.63;;
68216;SDS011;55037;52.354;4.992;2023-03-05T01:45:38;1.80;;;1.00;;
68216;SDS011;55037;52.354;4.992;2023-03-05T01:48:25;5.97;;;1.70;;
68216;SDS011;55037;52.354;4.992;2023-03-05T01:50:53;5.90;;;1.13;;
68216;SDS011;55037;52.354;4.992;2023-03-05T01:53:20;2.95;;;1.08;;
68216;SDS011;55037;52.354;4.992;2023-03-05T01:55:48;5.05;;;1.08;;
68216;SDS011;55037;52.354;4.992;2023-03-05T01:58:15;5.07;;;1.20;;
68216;SDS011;55037;52.354;4.992;2023-03-05T02:00:44;10.25;;;1.85;;
68216;SDS011;55037;52.354;4.992;2023-03-05T02:03:14;5.73;;;1.77;;
68216;SDS011;55037;52.354;4.992;2023-03-05T02:05:41;5.35;;;1.48;;
68216;SDS011;55037;52.354;4.992;2023-03-05T02:08:14;6.53;;;1.65;;
68216;SDS011;55037;52.354;4.992;2023-03-05T02:10:45;7.60;;;2.03;;
68216;SDS011;55037;52.354;4.992;2023-03-05T02:13:27;6.65;;;1.42;;
68216;SDS011;55037;52.354;4.992;2023-03-05T02:15:58;8.90;;;1.90;;
68216;SDS011;55037;52.354;4.992;2023-03-05T02:18:27;7.65;;;2.90;;
68216;SDS011;55037;52.354;4.992;2023-03-05T02:23:26;9.68;;;2.72;;
68216;SDS011;55037;52.354;4.992;2023-03-05T02:25:55;7.20;;;2.30;;
68216;SDS011;55037;52.354;4.992;2023-03-05T02:30:58;9.82;;;2.47;;
68216;SDS011;55037;52.354;4.992;2023-03-05T02:33:26;7.60;;;2.22;;
68216;SDS011;55037;52.354;4.992;2023-03-05T02:35:53;8.27;;;2.10;;
68216;SDS011;55037;52.354;4.992;2023-03-05T02:38:20;3.42;;;1.80;;
68216;SDS011;55037;52.354;4.992;2023-03-05T02:40:48;8.07;;;1.73;;
68216;SDS011;55037;52.354;4.992;2023-03-05T02:43:16;3.00;;;1.60;;
68216;SDS011;55037;52.354;4.992;2023-03-05T02:45:43;7.80;;;2.28;;
68216;SDS011;55037;52.354;4.992;2023-03-05T02:48:11;10.38;;;1.95;;
68216;SDS011;55037;52.354;4.992;2023-03-05T02:50:38;6.40;;;1.60;;
68216;SDS011;55037;52.354;4.992;2023-03-05T02:53:06;2.70;;;1.33;;
68216;SDS011;55037;52.354;4.992;2023-03-05T02:55:33;7.03;;;1.80;;
68216;SDS011;55037;52.354;4.992;2023-03-05T02:58:01;5.43;;;1.60;;
68216;SDS011;55037;52.354;4.992;2023-03-05T03:00:28;4.60;;;1.70;;
68216;SDS011;55037;52.354;4.992;2023-03-05T03:02:56;5.88;;;1.80;;
68216;SDS011;55037;52.354;4.992;2023-03-05T03:05:23;4.90;;;1.57;;
68216;SDS011;55037;52.354;4.992;2023-03-05T03:07:50;9.13;;;2.58;;
68216;SDS011;55037;52.354;4.992;2023-03-05T03:10:18;4.47;;;1.73;;
68216;SDS011;55037;52.354;4.992;2023-03-05T03:12:45;8.88;;;2.63;;
68216;SDS011;55037;52.354;4.992;2023-03-05T03:15:14;7.20;;;2.10;;
68216;SDS011;55037;52.354;4.992;2023-03-05T03:17:42;7.70;;;2.40;;
68216;SDS011;55037;52.354;4.992;2023-03-05T03:20:11;7.03;;;1.80;;
68216;SDS011;55037;52.354;4.992;2023-03-05T03:22:41;8.40;;;2.50;;
68216;SDS011;55037;52.354;4.992;2023-03-05T03:25:10;7.03;;;2.40;;
68216;SDS011;55037;52.354;4.992;2023-03-05T03:27:43;7.78;;;2.42;;
68216;SDS011;55037;52.354;4.992;2023-03-05T03:30:11;4.73;;;2.10;;
68216;SDS011;55037;52.354;4.992;2023-03-05T03:32:39;9.07;;;2.25;;
68216;SDS011;55037;52.354;4.992;2023-03-05T03:35:06;5.90;;;2.30;;
68216;SDS011;55037;52.354;4.992;2023-03-05T03:37:34;7.53;;;2.50;;
68216;SDS011;55037;52.354;4.992;2023-03-05T03:40:02;9.07;;;2.20;;
68216;SDS011;55037;52.354;4.992;2023-03-05T03:42:31;6.77;;;2.20;;
68216;SDS011;55037;52.354;4.992;2023-03-05T03:44:58;5.03;;;1.75;;
68216;SDS011;55037;52.354;4.992;2023-03-05T03:47:28;7.88;;;2.00;;
68216;SDS011;55037;52.354;4.992;2023-03-05T03:49:56;4.88;;;2.13;;
68216;SDS011;55037;52.354;4.992;2023-03-05T03:52:24;5.45;;;2.00;;
68216;SDS011;55037;52.354;4.992;2023-03-05T03:54:52;7.63;;;2.10;;
68216;SDS011;55037;52.354;4.992;2023-03-05T03:57:21;6.30;;;2.08;;
68216;SDS011;55037;52.354;4.992;2023-03-05T03:59:48;5.78;;;1.70;;
68216;SDS011;55037;52.354;4.992;2023-03-05T04:02:16;5.03;;;2.00;;
68216;SDS011;55037;52.354;4.992;2023-03-05T04:04:44;6.00;;;2.00;;
68216;SDS011;55037;52.354;4.992;2023-03-05T04:07:11;7.13;;;2.30;;
68216;SDS011;55037;52.354;4.992;2023-03-05T04:09:39;5.70;;;2.17;;
68216;SDS011;55037;52.354;4.992;2023-03-05T04:12:06;6.85;;;2.53;;
68216;SDS011;55037;52.354;4.992;2023-03-05T04:14:33;9.38;;;3.13;;
68216;SDS011;55037;52.354;4.992;2023-03-05T04:17:01;8.80;;;2.67;;
68216;SDS011;55037;52.354;4.992;2023-03-05T04:19:28;8.00;;;3.30;;
68216;SDS011;55037;52.354;4.992;2023-03-05T04:21:59;9.13;;;3.20;;
68216;SDS011;55037;52.354;4.992;2023-03-05T04:24:26;8.88;;;3.22;;
68216;SDS011;55037;52.354;4.992;2023-03-05T04:26:53;7.53;;;2.97;;
68216;SDS011;55037;52.354;4.992;2023-03-05T04:29:21;9.95;;;3.05;;
68216;SDS011;55037;52.354;4.992;2023-03-05T04:31:48;7.30;;;2.53;;
68216;SDS011;55037;52.354;4.992;2023-03-05T04:34:15;7.53;;;2.45;;
68216;SDS011;55037;52.354;4.992;2023-03-05T04:36:42;7.45;;;2.60;;
68216;SDS011;55037;52.354;4.992;2023-03-05T04:39:10;6.53;;;2.47;;
68216;SDS011;55037;52.354;4.992;2023-03-05T04:41:37;8.90;;;3.10;;
68216;SDS011;55037;52.354;4.992;2023-03-05T04:44:04;8.57;;;2.67;;
68216;SDS011;55037;52.354;4.992;2023-03-05T04:46:31;6.95;;;2.28;;
68216;SDS011;55037;52.354;4.992;2023-03-05T04:48:59;4.22;;;2.10;;
68216;SDS011;55037;52.354;4.992;2023-03-05T04:51:26;5.05;;;1.98;;
68216;SDS011;55037;52.354;4.992;2023-03-05T04:53:53;6.47;;;1.67;;
68216;SDS011;55037;52.354;4.992;2023-03-05T04:56:20;3.07;;;1.60;;
68216;SDS011;55037;52.354;4.992;2023-03-05T04:58:48;13.80;;;1.58;;
68216;SDS011;55037;52.354;4.992;2023-03-05T05:01:15;5.32;;;1.25;;
68216;SDS011;55037;52.354;4.992;2023-03-05T05:03:42;4.88;;;1.23;;
68216;SDS011;55037;52.354;4.992;2023-03-05T05:06:09;4.70;;;1.13;;
68216;SDS011;55037;52.354;4.992;2023-03-05T05:08:37;2.43;;;1.20;;
68216;SDS011;55037;52.354;4.992;2023-03-05T05:11:05;3.13;;;1.25;;
68216;SDS011;55037;52.354;4.992;2023-03-05T05:13:33;4.80;;;1.73;;
68216;SDS011;55037;52.354;4.992;2023-03-05T05:16:01;4.55;;;1.30;;
68216;SDS011;55037;52.354;4.992;2023-03-05T05:18:31;3.35;;;1.30;;
68216;SDS011;55037;52.354;4.992;2023-03-05T05:20:58;4.77;;;1.30;;
68216;SDS011;55037;52.354;4.992;2023-03-05T05:23:25;3.83;;;1.48;;
68216;SDS011;55037;52.354;4.992;2023-03-05T05:26:03;2.70;;;1.10;;
68216;SDS011;55037;52.354;4.992;2023-03-05T05:28:33;3.83;;;1.30;;
68216;SDS011;55037;52.354;4.992;2023-03-05T05:31:05;4.75;;;1.20;;
68216;SDS011;55037;52.354;4.992;2023-03-05T05:33:33;2.03;;;1.10;;
68216;SDS011;55037;52.354;4.992;2023-03-05T05:36:01;6.25;;;1.70;;
68216;SDS011;55037;52.354;4.992;2023-03-05T05:38:32;4.25;;;1.60;;
68216;SDS011;55037;52.354;4.992;2023-03-05T05:41:03;6.72;;;1.77;;
68216;SDS011;55037;52.354;4.992;2023-03-05T05:43:32;6.68;;;1.85;;
68216;SDS011;55037;52.354;4.992;2023-03-05T05:46:00;3.70;;;1.63;;
68216;SDS011;55037;52.354;4.992;2023-03-05T05:48:29;3.15;;;1.63;;
68216;SDS011;55037;52.354;4.992;2023-03-05T05:50:58;5.80;;;1.70;;
68216;SDS011;55037;52.354;4.992;2023-03-05T05:53:25;4.65;;;1.55;;
68216;SDS011;55037;52.354;4.992;2023-03-05T05:55:53;4.40;;;1.50;;
68216;SDS011;55037;52.354;4.992;2023-03-05T05:58:20;6.33;;;1.73;;
68216;SDS011;55037;52.354;4.992;2023-03-05T06:00:47;5.07;;;1.85;;
68216;SDS011;55037;52.354;4.992;2023-03-05T06:03:14;5.40;;;1.85;;
68216;SDS011;55037;52.354;4.992;2023-03-05T06:05:41;5.05;;;2.33;;
68216;SDS011;55037;52.354;4.992;2023-03-05T06:08:09;6.72;;;2.10;;
68216;SDS011;55037;52.354;4.992;2023-03-05T06:10:36;8.47;;;1.80;;
68216;SDS011;55037;52.354;4.992;2023-03-05T06:13:03;5.60;;;2.25;;
68216;SDS011;55037;52.354;4.992;2023-03-05T06:15:31;9.27;;;2.53;;
68216;SDS011;55037;52.354;4.992;2023-03-05T06:17:58;6.65;;;2.60;;
68216;SDS011;55037;52.354;4.992;2023-03-05T06:20:26;6.75;;;2.00;;
68216;SDS011;55037;52.354;4.992;2023-03-05T06:22:54;7.77;;;1.90;;
68216;SDS011;55037;52.354;4.992;2023-03-05T06:25:21;5.72;;;2.13;;
68216;SDS011;55037;52.354;4.992;2023-03-05T06:27:48;5.38;;;1.77;;
68216;SDS011;55037;52.354;4.992;2023-03-05T06:30:16;4.70;;;1.85;;
68216;SDS011;55037;52.354;4.992;2023-03-05T06:32:43;2.95;;;1.67;;
68216;SDS011;55037;52.354;4.992;2023-03-05T06:35:10;5.13;;;1.20;;
68216;SDS011;55037;52.354;4.992;2023-03-05T06:37:37;2.67;;;0.93;;
68216;SDS011;55037;52.354;4.992;2023-03-05T06:40:05;1.95;;;0.90;;
68216;SDS011;55037;52.354;4.992;2023-03-05T06:42:33;4.80;;;1.30;;
68216;SDS011;55037;52.354;4.992;2023-03-05T06:45:00;4.45;;;1.13;;
68216;SDS011;55037;52.354;4.992;2023-03-05T06:47:28;1.90;;;0.80;;
68216;SDS011;55037;52.354;4.992;2023-03-05T06:49:55;3.22;;;1.00;;
68216;SDS011;55037;52.354;4.992;2023-03-05T06:52:22;3.47;;;1.10;;
68216;SDS011;55037;52.354;4.992;2023-03-05T06:54:49;3.75;;;0.90;;
68216;SDS011;55037;52.354;4.992;2023-03-05T06:57:17;3.55;;;0.82;;
68216;SDS011;55037;52.354;4.992;2023-03-05T06:59:44;4.07;;;1.13;;
68216;SDS011;55037;52.354;4.992;2023-03-05T07:02:11;3.90;;;1.20;;
68216;SDS011;55037;52.354;4.992;2023-03-05T07:04:39;5.50;;;1.00;;
68216;SDS011;55037;52.354;4.992;2023-03-05T07:07:06;5.80;;;1.20;;
68216;SDS011;55037;52.354;4.992;2023-03-05T07:09:34;7.40;;;1.75;;
68216;SDS011;55037;52.354;4.992;2023-03-05T07:12:01;5.27;;;1.60;;
68216;SDS011;55037;52.354;4.992;2023-03-05T07:14:28;6.43;;;1.77;;
68216;SDS011;55037;52.354;4.992;2023-03-05T07:16:55;5.18;;;1.67;;
68216;SDS011;55037;52.354;4.992;2023-03-05T07:19:23;6.15;;;2.10;;
68216;SDS011;55037;52.354;4.992;2023-03-05T07:21:50;6.45;;;2.00;;
68216;SDS011;55037;52.354;4.992;2023-03-05T07:24:17;5.47;;;1.80;;
68216;SDS011;55037;52.354;4.992;2023-03-05T07:26:45;3.05;;;1.35;;
68216;SDS011;55037;52.354;4.992;2023-03-05T07:29:14;5.75;;;1.30;;
68216;SDS011;55037;52.354;4.992;2023-03-05T07:31:41;4.82;;;1.55;;
68216;SDS011;55037;52.354;4.992;2023-03-05T07:34:09;5.68;;;1.10;;
68216;SDS011;55037;52.354;4.992;2023-03-05T07:36:36;2.70;;;1.17;;
68216;SDS011;55037;52.354;4.992;2023-03-05T07:39:03;3.13;;;1.20;;
68216;SDS011;55037;52.354;4.992;2023-03-05T07:41:32;3.40;;;1.30;;
68216;SDS011;55037;52.354;4.992;2023-03-05T07:43:59;4.63;;;1.70;;
68216;SDS011;55037;52.354;4.992;2023-03-05T07:46:28;3.13;;;1.38;;
68216;SDS011;55037;52.354;4.992;2023-03-05T07:48:57;6.30;;;1.30;;
68216;SDS011;55037;52.354;4.992;2023-03-05T07:51:25;3.17;;;1.20;;
68216;SDS011;55037;52.354;4.992;2023-03-05T07:53:53;3.45;;;1.30;;
68216;SDS011;55037;52.354;4.992;2023-03-05T07:56:23;4.75;;;1.33;;
68216;SDS011;55037;52.354;4.992;2023-03-05T07:58:58;8.88;;;1.42;;
68216;SDS011;55037;52.354;4.992;2023-03-05T08:01:30;6.90;;;1.57;;
68216;SDS011;55037;52.354;4.992;2023-03-05T08:03:58;4.53;;;1.15;;
68216;SDS011;55037;52.354;4.992;2023-03-05T08:06:25;4.85;;;1.20;;
68216;SDS011;55037;52.354;4.992;2023-03-05T08:08:53;6.65;;;1.45;;
68216;SDS011;55037;52.354;4.992;2023-03-05T08:11:20;5.88;;;1.80;;
68216;SDS011;55037;52.354;4.992;2023-03-05T08:13:48;4.10;;;1.40;;
68216;SDS011;55037;52.354;4.992;2023-03-05T08:16:16;5.20;;;1.70;;
68216;SDS011;55037;52.354;4.992;2023-03-05T08:18:46;4.55;;;1.50;;
68216;SDS011;55037;52.354;4.992;2023-03-05T08:21:17;6.40;;;2.05;;
68216;SDS011;55037;52.354;4.992;2023-03-05T08:23:47;3.47;;;1.58;;
68216;SDS011;55037;52.354;4.992;2023-03-05T08:26:15;2.60;;;1.27;;
68216;SDS011;55037;52.354;4.992;2023-03-05T08:28:45;8.13;;;1.55;;
68216;SDS011;55037;52.354;4.992;2023-03-05T08:31:13;5.30;;;1.00;;
68216;SDS011;55037;52.354;4.992;2023-03-05T08:33:42;5.00;;;1.20;;
68216;SDS011;55037;52.354;4.992;2023-03-05T08:36:09;3.35;;;1.30;;
68216;SDS011;55037;52.354;4.992;2023-03-05T08:38:37;6.43;;;1.20;;
68216;SDS011;55037;52.354;4.992;2023-03-05T08:41:04;3.95;;;1.20;;
68216;SDS011;55037;52.354;4.992;2023-03-05T08:43:32;5.53;;;1.50;;
68216;SDS011;55037;52.354;4.992;2023-03-05T08:46:00;4.15;;;1.77;;
68216;SDS011;55037;52.354;4.992;2023-03-05T08:48:28;4.75;;;1.45;;
68216;SDS011;55037;52.354;4.992;2023-03-05T08:50:56;3.90;;;1.70;;
68216;SDS011;55037;52.354;4.992;2023-03-05T08:53:23;5.32;;;1.80;;
68216;SDS011;55037;52.354;4.992;2023-03-05T08:55:54;7.65;;;1.92;;
68216;SDS011;55037;52.354;4.992;2023-03-05T08:58:23;3.25;;;1.50;;
68216;SDS011;55037;52.354;4.992;2023-03-05T09:00:51;3.05;;;1.60;;
68216;SDS011;55037;52.354;4.992;2023-03-05T09:03:18;3.17;;;1.80;;
68216;SDS011;55037;52.354;4.992;2023-03-05T09:05:46;6.30;;;1.52;;
68216;SDS011;55037;52.354;4.992;2023-03-05T09:08:13;5.55;;;1.40;;
68216;SDS011;55037;52.354;4.992;2023-03-05T09:10:41;5.40;;;1.52;;
68216;SDS011;55037;52.354;4.992;2023-03-05T09:13:09;4.30;;;1.27;;
68216;SDS011;55037;52.354;4.992;2023-03-05T09:15:36;6.03;;;1.93;;
68216;SDS011;55037;52.354;4.992;2023-03-05T09:18:04;6.28;;;1.60;;
68216;SDS011;55037;52.354;4.992;2023-03-05T09:20:34;7.47;;;1.58;;
68216;SDS011;55037;52.354;4.992;2023-03-05T09:23:02;7.32;;;1.80;;
68216;SDS011;55037;52.354;4.992;2023-03-05T09:25:30;7.78;;;1.90;;
68216;SDS011;55037;52.354;4.992;2023-03-05T09:27:57;3.33;;;1.50;;
68216;SDS011;55037;52.354;4.992;2023-03-05T09:30:24;4.05;;;1.77;;
68216;SDS011;55037;52.354;4.992;2023-03-05T09:32:51;6.78;;;1.48;;
68216;SDS011;55037;52.354;4.992;2023-03-05T09:35:19;6.03;;;2.40;;
68216;SDS011;55037;52.354;4.992;2023-03-05T09:37:46;7.22;;;1.90;;
68216;SDS011;55037;52.354;4.992;2023-03-05T09:40:15;7.40;;;1.90;;
68216;SDS011;55037;52.354;4.992;2023-03-05T09:43:01;5.13;;;1.83;;
68216;SDS011;55037;52.354;4.992;2023-03-05T09:45:44;4.18;;;1.58;;
68216;SDS011;55037;52.354;4.992;2023-03-05T09:51:15;6.15;;;1.58;;
68216;SDS011;55037;52.354;4.992;2023-03-05T09:56:30;5.30;;;1.45;;
68216;SDS011;55037;52.354;4.992;2023-03-05T09:59:03;6.05;;;1.45;;
68216;SDS011;55037;52.354;4.992;2023-03-05T10:01:43;4.38;;;1.67;;
68216;SDS011;55037;52.354;4.992;2023-03-05T10:09:24;4.90;;;1.50;;
68216;SDS011;55037;52.354;4.992;2023-03-05T10:14:53;4.97;;;1.27;;
68216;SDS011;55037;52.354;4.992;2023-03-05T10:32:02;4.47;;;1.40;;
68216;SDS011;55037;52.354;4.992;2023-03-05T10:34:52;3.10;;;1.10;;
68216;SDS011;55037;52.354;4.992;2023-03-05T10:43:33;4.50;;;1.20;;
68216;SDS011;55037;52.354;4.992;2023-03-05T10:46:26;6.63;;;1.90;;
68216;SDS011;55037;52.354;4.992;2023-03-05T10:49:02;4.28;;;1.35;;
68216;SDS011;55037;52.354;4.992;2023-03-05T10:51:43;6.47;;;2.38;;
68216;SDS011;55037;52.354;4.992;2023-03-05T10:57:12;6.25;;;1.25;;
68216;SDS011;55037;52.354;4.992;2023-03-05T10:59:46;4.18;;;1.33;;
68216;SDS011;55037;52.354;4.992;2023-03-05T11:02:16;6.15;;;1.50;;
68216;SDS011;55037;52.354;4.992;2023-03-05T11:04:45;3.25;;;1.38;;
68216;SDS011;55037;52.354;4.992;2023-03-05T11:09:41;4.22;;;1.73;;
68216;SDS011;55037;52.354;4.992;2023-03-05T11:15:27;4.55;;;1.10;;
68216;SDS011;55037;52.354;4.992;2023-03-05T11:17:46;5.80;;;1.38;;
68216;SDS011;55037;52.354;4.992;2023-03-05T11:20:30;7.03;;;1.67;;
68216;SDS011;55037;52.354;4.992;2023-03-05T11:23:14;5.22;;;1.42;;
68216;SDS011;55037;52.354;4.992;2023-03-05T11:25:56;3.90;;;1.30;;
68216;SDS011;55037;52.354;4.992;2023-03-05T11:28:37;5.70;;;1.50;;
68216;SDS011;55037;52.354;4.992;2023-03-05T11:31:18;4.03;;;1.52;;
68216;SDS011;55037;52.354;4.992;2023-03-05T11:33:54;4.45;;;1.45;;
68216;SDS011;55037;52.354;4.992;2023-03-05T11:36:25;4.20;;;1.50;;
68216;SDS011;55037;52.354;4.992;2023-03-05T11:44:02;4.70;;;1.60;;
68216;SDS011;55037;52.354;4.992;2023-03-05T11:46:49;4.40;;;1.33;;
68216;SDS011;55037;52.354;4.992;2023-03-05T11:49:23;4.25;;;1.50;;
68216;SDS011;55037;52.354;4.992;2023-03-05T11:52:11;3.80;;;1.83;;
68216;SDS011;55037;52.354;4.992;2023-03-05T11:54:51;5.95;;;1.60;;
68216;SDS011;55037;52.354;4.992;2023-03-05T11:57:23;3.05;;;1.30;;
68216;SDS011;55037;52.354;4.992;2023-03-05T11:59:51;3.53;;;1.17;;
68216;SDS011;55037;52.354;4.992;2023-03-05T12:02:24;4.88;;;1.42;;
68216;SDS011;55037;52.354;4.992;2023-03-05T12:04:53;4.53;;;1.48;;
68216;SDS011;55037;52.354;4.992;2023-03-05T12:07:25;3.95;;;1.25;;
68216;SDS011;55037;52.354;4.992;2023-03-05T12:10:00;2.30;;;1.00;;
68216;SDS011;55037;52.354;4.992;2023-03-05T12:12:30;3.63;;;1.23;;
68216;SDS011;55037;52.354;4.992;2023-03-05T12:29:26;3.63;;;1.50;;
68216;SDS011;55037;52.354;4.992;2023-03-05T12:32:05;6.15;;;1.50;;
68216;SDS011;55037;52.354;4.992;2023-03-05T12:47:38;4.90;;;1.58;;
68216;SDS011;55037;52.354;4.992;2023-03-05T12:58:02;3.97;;;1.50;;
68216;SDS011;55037;52.354;4.992;2023-03-05T13:00:42;3.58;;;1.33;;
68216;SDS011;55037;52.354;4.992;2023-03-05T13:03:16;5.07;;;1.50;;
68216;SDS011;55037;52.354;4.992;2023-03-05T13:05:50;5.25;;;1.30;;
68216;SDS011;55037;52.354;4.992;2023-03-05T13:08:23;6.10;;;1.67;;
68216;SDS011;55037;52.354;4.992;2023-03-05T13:11:01;3.92;;;1.45;;
68216;SDS011;55037;52.354;4.992;2023-03-05T13:13:35;4.10;;;1.80;;
68216;SDS011;55037;52.354;4.992;2023-03-05T13:16:20;3.55;;;1.42;;
68216;SDS011;55037;52.354;4.992;2023-03-05T13:18:57;6.28;;;1.50;;
68216;SDS011;55037;52.354;4.992;2023-03-05T13:21:28;3.47;;;1.80;;
68216;SDS011;55037;52.354;4.992;2023-03-05T13:23:58;5.32;;;1.63;;
68216;SDS011;55037;52.354;4.992;2023-03-05T13:26:28;4.88;;;1.50;;
68216;SDS011;55037;52.354;4.992;2023-03-05T13:29:02;5.60;;;1.40;;
68216;SDS011;55037;52.354;4.992;2023-03-05T13:34:19;4.75;;;1.10;;
68216;SDS011;55037;52.354;4.992;2023-03-05T13:37:01;3.28;;;1.30;;
68216;SDS011;55037;52.354;4.992;2023-03-05T13:39:31;3.33;;;1.50;;
68216;SDS011;55037;52.354;4.992;2023-03-05T13:42:17;3.67;;;1.38;;
68216;SDS011;55037;52.354;4.992;2023-03-05T13:44:55;3.05;;;0.90;;
68216;SDS011;55037;52.354;4.992;2023-03-05T13:47:32;3.47;;;1.70;;
68216;SDS011;55037;52.354;4.992;2023-03-05T13:50:03;3.17;;;1.20;;
68216;SDS011;55037;52.354;4.992;2023-03-05T13:52:33;3.33;;;1.23;;
68216;SDS011;55037;52.354;4.992;2023-03-05T13:55:03;3.15;;;1.45;;
68216;SDS011;55037;52.354;4.992;2023-03-05T14:00:23;5.50;;;1.33;;
68216;SDS011;55037;52.354;4.992;2023-03-05T14:02:54;3.35;;;1.40;;
68216;SDS011;55037;52.354;4.992;2023-03-05T14:05:25;4.67;;;1.67;;
68216;SDS011;55037;52.354;4.992;2023-03-05T14:07:53;2.80;;;1.42;;
68216;SDS011;55037;52.354;4.992;2023-03-05T14:10:29;2.30;;;1.15;;
68216;SDS011;55037;52.354;4.992;2023-03-05T14:13:03;5.40;;;1.27;;
68216;SDS011;55037;52.354;4.992;2023-03-05T14:15:37;2.80;;;1.30;;
68216;SDS011;55037;52.354;4.992;2023-03-05T14:20:39;3.63;;;1.30;;
68216;SDS011;55037;52.354;4.992;2023-03-05T14:28:56;3.47;;;1.50;;
68216;SDS011;55037;52.354;4.992;2023-03-05T14:31:25;3.85;;;1.90;;
68216;SDS011;55037;52.354;4.992;2023-03-05T14:33:53;4.68;;;1.70;;
68216;SDS011;55037;52.354;4.992;2023-03-05T14:36:28;3.67;;;1.70;;
68216;SDS011;55037;52.354;4.992;2023-03-05T14:38:56;4.95;;;1.75;;
68216;SDS011;55037;52.354;4.992;2023-03-05T14:43:58;2.60;;;1.30;;
68216;SDS011;55037;52.354;4.992;2023-03-05T14:46:25;4.15;;;1.33;;
68216;SDS011;55037;52.354;4.992;2023-03-05T14:48:53;3.50;;;1.63;;
68216;SDS011;55037;52.354;4.992;2023-03-05T14:51:20;5.82;;;1.73;;
68216;SDS011;55037;52.354;4.992;2023-03-05T14:53:47;4.22;;;1.77;;
68216;SDS011;55037;52.354;4.992;2023-03-05T14:56:21;6.05;;;1.65;;
68216;SDS011;55037;52.354;4.992;2023-03-05T14:58:51;7.00;;;1.73;;
68216;SDS011;55037;52.354;4.992;2023-03-05T15:01:19;4.55;;;1.48;;
68216;SDS011;55037;52.354;4.992;2023-03-05T15:03:46;3.80;;;1.42;;
68216;SDS011;55037;52.354;4.992;2023-03-05T15:06:20;3.72;;;1.30;;
68216;SDS011;55037;52.354;4.992;2023-03-05T15:08:52;3.80;;;1.63;;
68216;SDS011;55037;52.354;4.992;2023-03-05T15:11:20;4.82;;;1.73;;
68216;SDS011;55037;52.354;4.992;2023-03-05T15:13:48;2.72;;;1.50;;
68216;SDS011;55037;52.354;4.992;2023-03-05T15:16:16;4.68;;;1.58;;
68216;SDS011;55037;52.354;4.992;2023-03-05T15:18:44;3.13;;;1.30;;
68216;SDS011;55037;52.354;4.992;2023-03-05T15:21:12;2.63;;;1.50;;
68216;SDS011;55037;52.354;4.992;2023-03-05T15:23:39;5.30;;;1.52;;
68216;SDS011;55037;52.354;4.992;2023-03-05T15:26:07;5.55;;;1.85;;
68216;SDS011;55037;52.354;4.992;2023-03-05T15:28:36;3.33;;;1.13;;
68216;SDS011;55037;52.354;4.992;2023-03-05T15:31:04;6.25;;;1.63;;
68216;SDS011;55037;52.354;4.992;2023-03-05T15:33:32;4.28;;;1.30;;
68216;SDS011;55037;52.354;4.992;2023-03-05T15:35:59;4.15;;;1.25;;
68216;SDS011;55037;52.354;4.992;2023-03-05T15:38:27;3.30;;;1.30;;
68216;SDS011;55037;52.354;4.992;2023-03-05T15:40:54;3.55;;;1.58;;
68216;SDS011;55037;52.354;4.992;2023-03-05T15:43:21;5.80;;;1.13;;
68216;SDS011;55037;52.354;4.992;2023-03-05T15:45:49;3.53;;;1.23;;
68216;SDS011;55037;52.354;4.992;2023-03-05T15:48:16;4.57;;;1.25;;
68216;SDS011;55037;52.354;4.992;2023-03-05T15:50:43;1.98;;;0.98;;
68216;SDS011;55037;52.354;4.992;2023-03-05T15:53:11;6.78;;;1.20;;
68216;SDS011;55037;52.354;4.992;2023-03-05T15:55:41;3.78;;;0.88;;
68216;SDS011;55037;52.354;4.992;2023-03-05T15:58:12;2.87;;;1.00;;
68216;SDS011;55037;52.354;4.992;2023-03-05T16:00:41;3.38;;;1.08;;
68216;SDS011;55037;52.354;4.992;2023-03-05T16:03:08;2.83;;;1.10;;
68216;SDS011;55037;52.354;4.992;2023-03-05T16:05:36;2.88;;;1.00;;
68216;SDS011;55037;52.354;4.992;2023-03-05T16:08:06;6.18;;;1.23;;
68216;SDS011;55037;52.354;4.992;2023-03-05T16:10:34;4.23;;;0.93;;
68216;SDS011;55037;52.354;4.992;2023-03-05T16:13:08;2.30;;;0.90;;
68216;SDS011;55037;52.354;4.992;2023-03-05T16:15:39;6.22;;;1.10;;
68216;SDS011;55037;52.354;4.992;2023-03-05T16:18:08;4.55;;;1.23;;
68216;SDS011;55037;52.354;4.992;2023-03-05T16:20:39;4.57;;;1.00;;
68216;SDS011;55037;52.354;4.992;2023-03-05T16:23:07;3.23;;;0.93;;
68216;SDS011;55037;52.354;4.992;2023-03-05T16:25:35;2.80;;;1.10;;
68216;SDS011;55037;52.354;4.992;2023-03-05T16:28:02;2.22;;;1.05;;
68216;SDS011;55037;52.354;4.992;2023-03-05T16:30:30;4.03;;;1.00;;
68216;SDS011;55037;52.354;4.992;2023-03-05T16:32:58;5.88;;;1.20;;
68216;SDS011;55037;52.354;4.992;2023-03-05T16:35:25;3.70;;;1.10;;
68216;SDS011;55037;52.354;4.992;2023-03-05T16:37:53;2.88;;;0.80;;
68216;SDS011;55037;52.354;4.992;2023-03-05T16:40:20;4.78;;;1.08;;
68216;SDS011;55037;52.354;4.992;2023-03-05T16:42:47;2.35;;;0.95;;
68216;SDS011;55037;52.354;4.992;2023-03-05T16:45:15;3.33;;;1.48;;
68216;SDS011;55037;52.354;4.992;2023-03-05T16:47:42;3.47;;;1.37;;
68216;SDS011;55037;52.354;4.992;2023-03-05T16:50:10;3.42;;;1.50;;